sensor_id;sensor_type;location;lat;lon;timestamp;P1;durP1;ratioP1;P2;durP2;ratioP2
6207;SDS011;3137;51.550;7.060;2023-06-22T00:02:24;5.53;;;5.33;;
6207;SDS011;3137;51.550;7.060;2023-06-22T00:04:51;4.90;;;4.90;;
6207;SDS011;3137;51.550;7.060;2023-06-22T00:07:17;6.63;;;6.43;;
6207;SDS011;3137;51.550;7.060;2023-06-22T00:09:44;5.53;;;5.33;;
6207;SDS011;3137;51.550;7.060;2023-06-22T00:12:10;6.77;;;6.47;;
6207;SDS011;3137;51.550;7.060;2023-06-22T00:14:36;4.20;;;4.10;;
6207;SDS011;3137;51.550;7.060;2023-06-22T00:17:03;5.47;;;5.13;;
6207;SDS011;3137;51.550;7.060;2023-06-22T00:19:29;4.93;;;4.80;;
6207;SDS011;3137;51.550;7.060;2023-06-22T00:21:56;5.57;;;5.20;;
6207;SDS011;3137;51.550;7.060;2023-06-22T00:24:26;5.10;;;4.93;;
6207;SDS011;3137;51.550;7.060;2023-06-22T00:26:52;5.60;;;5.20;;
6207;SDS011;3137;51.550;7.060;2023-06-22T00:29:19;5.77;;;5.67;;
6207;SDS011;3137;51.550;7.060;2023-06-22T00:31:45;6.37;;;6.13;;
6207;SDS011;3137;51.550;7.060;2023-06-22T00:34:12;7.33;;;5.80;;
6207;SDS011;3137;51.550;7.060;2023-06-22T00:36:38;5.67;;;5.40;;
6207;SDS011;3137;51.550;7.060;2023-06-22T00:39:07;5.93;;;5.73;;
6207;SDS011;3137;51.550;7.060;2023-06-22T00:41:35;7.23;;;6.87;;
6207;SDS011;3137;51.550;7.060;2023-06-22T00:44:03;6.87;;;6.67;;
6207;SDS011;3137;51.550;7.060;2023-06-22T00:46:30;5.77;;;5.63;;
6207;SDS011;3137;51.550;7.060;2023-06-22T00:48:58;5.30;;;5.10;;
6207;SDS011;3137;51.550;7.060;2023-06-22T00:51:27;5.90;;;5.60;;
6207;SDS011;3137;51.550;7.060;2023-06-22T00:53:53;6.03;;;5.93;;
6207;SDS011;3137;51.550;7.060;2023-06-22T00:56:20;6.07;;;5.53;;
6207;SDS011;3137;51.550;7.060;2023-06-22T00:58:51;4.97;;;4.87;;
6207;SDS011;3137;51.550;7.060;2023-06-22T01:01:19;6.07;;;5.97;;
6207;SDS011;3137;51.550;7.060;2023-06-22T01:03:50;5.77;;;5.47;;
6207;SDS011;3137;51.550;7.060;2023-06-22T01:06:28;5.67;;;5.53;;
6207;SDS011;3137;51.550;7.060;2023-06-22T01:09:27;6.10;;;5.73;;
6207;SDS011;3137;51.550;7.060;2023-06-22T01:11:57;5.50;;;5.10;;
6207;SDS011;3137;51.550;7.060;2023-06-22T01:17:23;6.80;;;6.40;;
6207;SDS011;3137;51.550;7.060;2023-06-22T01:19:51;5.40;;;5.07;;
6207;SDS011;3137;51.550;7.060;2023-06-22T01:22:28;6.17;;;5.97;;
6207;SDS011;3137;51.550;7.060;2023-06-22T01:25:05;6.17;;;5.97;;
6207;SDS011;3137;51.550;7.060;2023-06-22T01:30:11;6.27;;;6.07;;
6207;SDS011;3137;51.550;7.060;2023-06-22T01:32:41;6.80;;;6.57;;
6207;SDS011;3137;51.550;7.060;2023-06-22T01:35:09;6.97;;;6.87;;
6207;SDS011;3137;51.550;7.060;2023-06-22T01:37:37;6.80;;;6.60;;
6207;SDS011;3137;51.550;7.060;2023-06-22T01:40:05;6.80;;;6.70;;
6207;SDS011;3137;51.550;7.060;2023-06-22T01:42:34;7.63;;;7.40;;
6207;SDS011;3137;51.550;7.060;2023-06-22T01:45:02;6.93;;;6.80;;
6207;SDS011;3137;51.550;7.060;2023-06-22T01:47:29;8.23;;;7.93;;
6207;SDS011;3137;51.550;7.060;2023-06-22T01:49:56;7.57;;;7.37;;
6207;SDS011;3137;51.550;7.060;2023-06-22T01:52:22;5.50;;;5.40;;
6207;SDS011;3137;51.550;7.060;2023-06-22T01:54:49;7.33;;;6.83;;
6207;SDS011;3137;51.550;7.060;2023-06-22T01:57:15;6.20;;;6.07;;
6207;SDS011;3137;51.550;7.060;2023-06-22T01:59:59;6.63;;;6.33;;
6207;SDS011;3137;51.550;7.060;2023-06-22T02:05:23;8.30;;;7.87;;
6207;SDS011;3137;51.550;7.060;2023-06-22T02:07:55;7.93;;;7.33;;
6207;SDS011;3137;51.550;7.060;2023-06-22T02:10:37;6.93;;;6.67;;
6207;SDS011;3137;51.550;7.060;2023-06-22T02:13:07;6.80;;;6.60;;
6207;SDS011;3137;51.550;7.060;2023-06-22T02:15:36;7.73;;;7.13;;
6207;SDS011;3137;51.550;7.060;2023-06-22T02:18:03;6.30;;;6.20;;
6207;SDS011;3137;51.550;7.060;2023-06-22T02:20:30;11.70;;;6.00;;
6207;SDS011;3137;51.550;7.060;2023-06-22T02:22:57;7.80;;;7.60;;
6207;SDS011;3137;51.550;7.060;2023-06-22T02:25:23;6.33;;;6.13;;
6207;SDS011;3137;51.550;7.060;2023-06-22T02:27:50;6.47;;;6.20;;
6207;SDS011;3137;51.550;7.060;2023-06-22T02:30:16;6.63;;;6.43;;
6207;SDS011;3137;51.550;7.060;2023-06-22T02:32:43;6.40;;;6.30;;
6207;SDS011;3137;51.550;7.060;2023-06-22T02:35:09;7.30;;;7.00;;
6207;SDS011;3137;51.550;7.060;2023-06-22T02:37:36;6.77;;;6.57;;
6207;SDS011;3137;51.550;7.060;2023-06-22T02:40:07;5.70;;;5.50;;
6207;SDS011;3137;51.550;7.060;2023-06-22T02:42:36;6.57;;;6.47;;
6207;SDS011;3137;51.550;7.060;2023-06-22T02:45:03;8.20;;;7.57;;
6207;SDS011;3137;51.550;7.060;2023-06-22T02:47:30;7.20;;;7.03;;
6207;SDS011;3137;51.550;7.060;2023-06-22T02:49:57;8.70;;;8.30;;
6207;SDS011;3137;51.550;7.060;2023-06-22T02:52:24;7.60;;;7.40;;
6207;SDS011;3137;51.550;7.060;2023-06-22T02:54:50;7.37;;;7.17;;
6207;SDS011;3137;51.550;7.060;2023-06-22T02:57:17;8.50;;;8.00;;
6207;SDS011;3137;51.550;7.060;2023-06-22T02:59:43;8.43;;;7.67;;
6207;SDS011;3137;51.550;7.060;2023-06-22T03:02:11;7.57;;;7.47;;
6207;SDS011;3137;51.550;7.060;2023-06-22T03:04:38;7.80;;;7.47;;
6207;SDS011;3137;51.550;7.060;2023-06-22T03:07:05;8.47;;;8.17;;
6207;SDS011;3137;51.550;7.060;2023-06-22T03:09:32;7.87;;;7.73;;
6207;SDS011;3137;51.550;7.060;2023-06-22T03:11:59;9.30;;;8.57;;
6207;SDS011;3137;51.550;7.060;2023-06-22T03:14:33;9.30;;;8.97;;
6207;SDS011;3137;51.550;7.060;2023-06-22T03:17:00;9.10;;;8.83;;
6207;SDS011;3137;51.550;7.060;2023-06-22T03:19:29;8.37;;;8.17;;
6207;SDS011;3137;51.550;7.060;2023-06-22T03:21:59;9.50;;;8.93;;
6207;SDS011;3137;51.550;7.060;2023-06-22T03:24:26;8.73;;;8.30;;
6207;SDS011;3137;51.550;7.060;2023-06-22T03:26:55;9.80;;;9.20;;
6207;SDS011;3137;51.550;7.060;2023-06-22T03:29:23;9.40;;;8.90;;
6207;SDS011;3137;51.550;7.060;2023-06-22T03:31:50;9.90;;;9.27;;
6207;SDS011;3137;51.550;7.060;2023-06-22T03:34:17;9.80;;;9.17;;
6207;SDS011;3137;51.550;7.060;2023-06-22T03:36:43;11.77;;;11.03;;
6207;SDS011;3137;51.550;7.060;2023-06-22T03:39:11;10.60;;;10.07;;
6207;SDS011;3137;51.550;7.060;2023-06-22T03:41:39;10.93;;;10.23;;
6207;SDS011;3137;51.550;7.060;2023-06-22T03:44:05;12.07;;;11.17;;
6207;SDS011;3137;51.550;7.060;2023-06-22T03:46:32;10.90;;;10.03;;
6207;SDS011;3137;51.550;7.060;2023-06-22T03:48:59;10.70;;;10.23;;
6207;SDS011;3137;51.550;7.060;2023-06-22T03:51:25;12.03;;;11.43;;
6207;SDS011;3137;51.550;7.060;2023-06-22T03:53:51;12.20;;;11.53;;
6207;SDS011;3137;51.550;7.060;2023-06-22T03:56:18;10.03;;;9.63;;
6207;SDS011;3137;51.550;7.060;2023-06-22T03:58:46;11.40;;;10.43;;
6207;SDS011;3137;51.550;7.060;2023-06-22T04:01:12;13.83;;;12.53;;
6207;SDS011;3137;51.550;7.060;2023-06-22T04:03:39;11.87;;;11.03;;
6207;SDS011;3137;51.550;7.060;2023-06-22T04:06:07;13.50;;;12.60;;
6207;SDS011;3137;51.550;7.060;2023-06-22T04:08:34;13.63;;;12.63;;
6207;SDS011;3137;51.550;7.060;2023-06-22T04:11:00;14.33;;;13.27;;
6207;SDS011;3137;51.550;7.060;2023-06-22T04:13:27;14.73;;;13.40;;
6207;SDS011;3137;51.550;7.060;2023-06-22T04:15:53;13.97;;;12.90;;
6207;SDS011;3137;51.550;7.060;2023-06-22T04:18:20;13.80;;;12.93;;
6207;SDS011;3137;51.550;7.060;2023-06-22T04:20:46;11.53;;;10.83;;
6207;SDS011;3137;51.550;7.060;2023-06-22T04:23:13;13.37;;;12.27;;
6207;SDS011;3137;51.550;7.060;2023-06-22T04:25:39;15.73;;;14.63;;
6207;SDS011;3137;51.550;7.060;2023-06-22T04:28:06;12.80;;;12.10;;
6207;SDS011;3137;51.550;7.060;2023-06-22T04:30:38;13.03;;;12.23;;
6207;SDS011;3137;51.550;7.060;2023-06-22T04:33:13;14.17;;;12.97;;
6207;SDS011;3137;51.550;7.060;2023-06-22T04:35:40;11.93;;;11.20;;
6207;SDS011;3137;51.550;7.060;2023-06-22T04:38:11;12.53;;;11.67;;
6207;SDS011;3137;51.550;7.060;2023-06-22T04:40:39;13.87;;;12.50;;
6207;SDS011;3137;51.550;7.060;2023-06-22T04:43:06;14.03;;;12.97;;
6207;SDS011;3137;51.550;7.060;2023-06-22T04:45:32;12.43;;;11.73;;
6207;SDS011;3137;51.550;7.060;2023-06-22T04:47:59;11.87;;;11.23;;
6207;SDS011;3137;51.550;7.060;2023-06-22T04:50:26;13.27;;;12.40;;
6207;SDS011;3137;51.550;7.060;2023-06-22T04:52:52;14.60;;;13.60;;
6207;SDS011;3137;51.550;7.060;2023-06-22T04:55:19;11.97;;;11.27;;
6207;SDS011;3137;51.550;7.060;2023-06-22T04:57:46;11.17;;;10.67;;
6207;SDS011;3137;51.550;7.060;2023-06-22T05:00:18;13.63;;;12.73;;
6207;SDS011;3137;51.550;7.060;2023-06-22T05:02:46;12.70;;;11.90;;
6207;SDS011;3137;51.550;7.060;2023-06-22T05:05:13;12.13;;;11.20;;
6207;SDS011;3137;51.550;7.060;2023-06-22T05:07:41;13.63;;;12.60;;
6207;SDS011;3137;51.550;7.060;2023-06-22T05:10:12;13.17;;;12.13;;
6207;SDS011;3137;51.550;7.060;2023-06-22T05:12:39;13.60;;;12.77;;
6207;SDS011;3137;51.550;7.060;2023-06-22T05:15:08;15.07;;;13.83;;
6207;SDS011;3137;51.550;7.060;2023-06-22T05:17:36;11.83;;;11.20;;
6207;SDS011;3137;51.550;7.060;2023-06-22T05:20:07;13.57;;;12.80;;
6207;SDS011;3137;51.550;7.060;2023-06-22T05:22:38;13.60;;;12.43;;
6207;SDS011;3137;51.550;7.060;2023-06-22T05:25:07;14.13;;;11.77;;
6207;SDS011;3137;51.550;7.060;2023-06-22T05:27:35;13.27;;;12.30;;
6207;SDS011;3137;51.550;7.060;2023-06-22T05:30:06;14.13;;;13.17;;
6207;SDS011;3137;51.550;7.060;2023-06-22T05:32:34;12.87;;;11.83;;
6207;SDS011;3137;51.550;7.060;2023-06-22T05:35:01;14.93;;;13.67;;
6207;SDS011;3137;51.550;7.060;2023-06-22T05:37:29;13.90;;;12.80;;
6207;SDS011;3137;51.550;7.060;2023-06-22T05:39:55;13.63;;;12.63;;
6207;SDS011;3137;51.550;7.060;2023-06-22T05:42:23;19.57;;;17.07;;
6207;SDS011;3137;51.550;7.060;2023-06-22T05:44:52;15.73;;;14.23;;
6207;SDS011;3137;51.550;7.060;2023-06-22T05:47:19;13.43;;;12.17;;
6207;SDS011;3137;51.550;7.060;2023-06-22T05:49:46;12.80;;;12.03;;
6207;SDS011;3137;51.550;7.060;2023-06-22T05:52:12;13.87;;;12.50;;
6207;SDS011;3137;51.550;7.060;2023-06-22T05:54:38;14.87;;;13.63;;
6207;SDS011;3137;51.550;7.060;2023-06-22T05:57:05;14.10;;;13.10;;
6207;SDS011;3137;51.550;7.060;2023-06-22T05:59:31;15.13;;;14.07;;
6207;SDS011;3137;51.550;7.060;2023-06-22T06:01:58;17.43;;;15.97;;
6207;SDS011;3137;51.550;7.060;2023-06-22T06:04:24;13.17;;;11.93;;
6207;SDS011;3137;51.550;7.060;2023-06-22T06:06:52;14.40;;;13.53;;
6207;SDS011;3137;51.550;7.060;2023-06-22T06:09:18;15.33;;;13.97;;
6207;SDS011;3137;51.550;7.060;2023-06-22T06:11:44;13.93;;;12.83;;
6207;SDS011;3137;51.550;7.060;2023-06-22T06:14:11;14.10;;;13.03;;
6207;SDS011;3137;51.550;7.060;2023-06-22T06:16:37;15.23;;;14.10;;
6207;SDS011;3137;51.550;7.060;2023-06-22T06:19:04;14.20;;;12.83;;
6207;SDS011;3137;51.550;7.060;2023-06-22T06:21:30;17.87;;;16.33;;
6207;SDS011;3137;51.550;7.060;2023-06-22T06:23:56;13.50;;;12.33;;
6207;SDS011;3137;51.550;7.060;2023-06-22T06:26:23;15.30;;;14.10;;
6207;SDS011;3137;51.550;7.060;2023-06-22T06:28:56;15.13;;;14.03;;
6207;SDS011;3137;51.550;7.060;2023-06-22T06:31:23;14.67;;;13.40;;
6207;SDS011;3137;51.550;7.060;2023-06-22T06:33:50;16.07;;;14.87;;
6207;SDS011;3137;51.550;7.060;2023-06-22T06:36:16;20.80;;;16.20;;
6207;SDS011;3137;51.550;7.060;2023-06-22T06:38:43;13.70;;;12.73;;
6207;SDS011;3137;51.550;7.060;2023-06-22T06:41:09;14.37;;;13.30;;
6207;SDS011;3137;51.550;7.060;2023-06-22T06:43:36;19.03;;;15.40;;
6207;SDS011;3137;51.550;7.060;2023-06-22T06:46:02;13.30;;;12.20;;
6207;SDS011;3137;51.550;7.060;2023-06-22T06:48:29;14.37;;;13.27;;
6207;SDS011;3137;51.550;7.060;2023-06-22T06:50:56;16.70;;;15.33;;
6207;SDS011;3137;51.550;7.060;2023-06-22T06:53:22;14.60;;;13.30;;
6207;SDS011;3137;51.550;7.060;2023-06-22T06:55:48;14.57;;;13.33;;
6207;SDS011;3137;51.550;7.060;2023-06-22T06:58:15;14.83;;;13.43;;
6207;SDS011;3137;51.550;7.060;2023-06-22T07:00:42;19.73;;;15.53;;
6207;SDS011;3137;51.550;7.060;2023-06-22T07:03:09;17.57;;;14.43;;
6207;SDS011;3137;51.550;7.060;2023-06-22T07:05:36;17.33;;;15.83;;
6207;SDS011;3137;51.550;7.060;2023-06-22T07:08:02;19.67;;;17.90;;
6207;SDS011;3137;51.550;7.060;2023-06-22T07:10:29;14.97;;;13.67;;
6207;SDS011;3137;51.550;7.060;2023-06-22T07:12:56;16.77;;;15.47;;
6207;SDS011;3137;51.550;7.060;2023-06-22T07:15:23;17.10;;;15.33;;
6207;SDS011;3137;51.550;7.060;2023-06-22T07:17:49;15.33;;;14.03;;
6207;SDS011;3137;51.550;7.060;2023-06-22T07:20:16;17.37;;;15.73;;
6207;SDS011;3137;51.550;7.060;2023-06-22T07:22:43;16.37;;;15.17;;
6207;SDS011;3137;51.550;7.060;2023-06-22T07:25:13;17.70;;;16.27;;
6207;SDS011;3137;51.550;7.060;2023-06-22T07:27:56;13.97;;;13.00;;
6207;SDS011;3137;51.550;7.060;2023-06-22T07:30:28;16.90;;;15.47;;
6207;SDS011;3137;51.550;7.060;2023-06-22T07:32:56;17.93;;;16.23;;
6207;SDS011;3137;51.550;7.060;2023-06-22T07:35:23;16.20;;;14.93;;
6207;SDS011;3137;51.550;7.060;2023-06-22T07:37:50;18.50;;;16.57;;
6207;SDS011;3137;51.550;7.060;2023-06-22T07:40:16;16.70;;;15.30;;
6207;SDS011;3137;51.550;7.060;2023-06-22T07:42:43;16.93;;;15.60;;
6207;SDS011;3137;51.550;7.060;2023-06-22T07:45:10;20.23;;;18.30;;
6207;SDS011;3137;51.550;7.060;2023-06-22T07:47:36;18.07;;;16.30;;
6207;SDS011;3137;51.550;7.060;2023-06-22T07:50:03;16.50;;;15.00;;
6207;SDS011;3137;51.550;7.060;2023-06-22T07:52:30;15.73;;;14.33;;
6207;SDS011;3137;51.550;7.060;2023-06-22T07:54:57;17.87;;;16.03;;
6207;SDS011;3137;51.550;7.060;2023-06-22T07:57:24;17.10;;;15.60;;
6207;SDS011;3137;51.550;7.060;2023-06-22T07:59:58;17.63;;;15.83;;
6207;SDS011;3137;51.550;7.060;2023-06-22T08:02:26;17.73;;;16.00;;
6207;SDS011;3137;51.550;7.060;2023-06-22T08:04:52;18.67;;;15.97;;
6207;SDS011;3137;51.550;7.060;2023-06-22T08:07:31;19.03;;;16.97;;
6207;SDS011;3137;51.550;7.060;2023-06-22T08:09:59;24.13;;;16.47;;
6207;SDS011;3137;51.550;7.060;2023-06-22T08:12:26;18.80;;;16.10;;
6207;SDS011;3137;51.550;7.060;2023-06-22T08:14:52;18.03;;;15.93;;
6207;SDS011;3137;51.550;7.060;2023-06-22T08:17:19;21.83;;;15.37;;
6207;SDS011;3137;51.550;7.060;2023-06-22T08:19:45;17.40;;;15.90;;
6207;SDS011;3137;51.550;7.060;2023-06-22T08:22:12;17.03;;;15.67;;
6207;SDS011;3137;51.550;7.060;2023-06-22T08:24:38;17.93;;;16.10;;
6207;SDS011;3137;51.550;7.060;2023-06-22T08:27:06;18.70;;;16.93;;
6207;SDS011;3137;51.550;7.060;2023-06-22T08:29:35;14.93;;;13.83;;
6207;SDS011;3137;51.550;7.060;2023-06-22T08:32:02;16.97;;;15.30;;
6207;SDS011;3137;51.550;7.060;2023-06-22T08:34:28;15.90;;;14.53;;
6207;SDS011;3137;51.550;7.060;2023-06-22T08:36:55;19.90;;;16.93;;
6207;SDS011;3137;51.550;7.060;2023-06-22T08:39:21;19.83;;;17.50;;
6207;SDS011;3137;51.550;7.060;2023-06-22T08:41:48;21.07;;;19.10;;
6207;SDS011;3137;51.550;7.060;2023-06-22T08:44:16;18.63;;;17.03;;
6207;SDS011;3137;51.550;7.060;2023-06-22T08:46:44;19.33;;;17.33;;
6207;SDS011;3137;51.550;7.060;2023-06-22T08:49:11;16.60;;;15.20;;
6207;SDS011;3137;51.550;7.060;2023-06-22T08:51:38;15.83;;;14.03;;
6207;SDS011;3137;51.550;7.060;2023-06-22T08:54:04;18.53;;;16.53;;
6207;SDS011;3137;51.550;7.060;2023-06-22T08:56:31;15.60;;;13.40;;
6207;SDS011;3137;51.550;7.060;2023-06-22T08:58:57;22.77;;;18.13;;
6207;SDS011;3137;51.550;7.060;2023-06-22T09:01:24;17.53;;;16.00;;
6207;SDS011;3137;51.550;7.060;2023-06-22T09:03:50;22.27;;;15.70;;
6207;SDS011;3137;51.550;7.060;2023-06-22T09:06:22;16.37;;;14.77;;
6207;SDS011;3137;51.550;7.060;2023-06-22T09:08:48;12.73;;;11.43;;
6207;SDS011;3137;51.550;7.060;2023-06-22T09:11:15;13.93;;;12.73;;
6207;SDS011;3137;51.550;7.060;2023-06-22T09:13:42;13.73;;;12.63;;
6207;SDS011;3137;51.550;7.060;2023-06-22T09:16:08;14.83;;;13.73;;
6207;SDS011;3137;51.550;7.060;2023-06-22T09:18:35;14.10;;;12.90;;
6207;SDS011;3137;51.550;7.060;2023-06-22T09:21:02;16.13;;;14.93;;
6207;SDS011;3137;51.550;7.060;2023-06-22T09:23:28;18.10;;;16.33;;
6207;SDS011;3137;51.550;7.060;2023-06-22T09:25:55;16.60;;;15.10;;
6207;SDS011;3137;51.550;7.060;2023-06-22T09:28:22;17.13;;;15.73;;
6207;SDS011;3137;51.550;7.060;2023-06-22T09:30:48;15.50;;;13.97;;
6207;SDS011;3137;51.550;7.060;2023-06-22T09:33:14;16.47;;;14.90;;
6207;SDS011;3137;51.550;7.060;2023-06-22T09:35:41;13.60;;;12.63;;
6207;SDS011;3137;51.550;7.060;2023-06-22T09:38:07;14.67;;;13.47;;
6207;SDS011;3137;51.550;7.060;2023-06-22T09:40:34;17.60;;;16.10;;
6207;SDS011;3137;51.550;7.060;2023-06-22T09:43:06;17.90;;;16.00;;
6207;SDS011;3137;51.550;7.060;2023-06-22T09:45:32;16.83;;;15.40;;
6207;SDS011;3137;51.550;7.060;2023-06-22T09:47:59;16.53;;;15.20;;
6207;SDS011;3137;51.550;7.060;2023-06-22T09:50:25;16.80;;;15.60;;
6207;SDS011;3137;51.550;7.060;2023-06-22T09:52:52;20.37;;;15.90;;
6207;SDS011;3137;51.550;7.060;2023-06-22T09:55:21;17.00;;;15.43;;
6207;SDS011;3137;51.550;7.060;2023-06-22T09:57:48;21.17;;;14.43;;
6207;SDS011;3137;51.550;7.060;2023-06-22T10:00:15;15.60;;;13.97;;
6207;SDS011;3137;51.550;7.060;2023-06-22T10:02:43;13.23;;;12.43;;
6207;SDS011;3137;51.550;7.060;2023-06-22T10:05:11;14.37;;;13.20;;
6207;SDS011;3137;51.550;7.060;2023-06-22T10:07:38;16.83;;;15.43;;
6207;SDS011;3137;51.550;7.060;2023-06-22T10:10:08;15.67;;;14.47;;
6207;SDS011;3137;51.550;7.060;2023-06-22T10:12:36;13.90;;;12.70;;
6207;SDS011;3137;51.550;7.060;2023-06-22T10:15:02;13.43;;;12.47;;
6207;SDS011;3137;51.550;7.060;2023-06-22T10:17:29;13.80;;;12.60;;
6207;SDS011;3137;51.550;7.060;2023-06-22T10:19:56;14.73;;;13.70;;
6207;SDS011;3137;51.550;7.060;2023-06-22T10:22:22;11.93;;;11.00;;
6207;SDS011;3137;51.550;7.060;2023-06-22T10:24:49;14.43;;;13.23;;
6207;SDS011;3137;51.550;7.060;2023-06-22T10:27:16;11.95;;;11.23;;
6207;SDS011;3137;51.550;7.060;2023-06-22T10:29:42;12.60;;;11.13;;
6207;SDS011;3137;51.550;7.060;2023-06-22T10:32:09;13.13;;;11.75;;
6207;SDS011;3137;51.550;7.060;2023-06-22T10:34:35;11.88;;;10.70;;
6207;SDS011;3137;51.550;7.060;2023-06-22T10:37:02;10.23;;;9.63;;
6207;SDS011;3137;51.550;7.060;2023-06-22T10:39:28;12.65;;;11.15;;
6207;SDS011;3137;51.550;7.060;2023-06-22T10:41:54;10.43;;;9.80;;
6207;SDS011;3137;51.550;7.060;2023-06-22T10:44:22;9.98;;;9.57;;
6207;SDS011;3137;51.550;7.060;2023-06-22T10:46:48;13.73;;;11.45;;
6207;SDS011;3137;51.550;7.060;2023-06-22T10:49:15;13.50;;;12.38;;
6207;SDS011;3137;51.550;7.060;2023-06-22T10:51:41;11.85;;;10.93;;
6207;SDS011;3137;51.550;7.060;2023-06-22T10:54:08;11.43;;;10.68;;
6207;SDS011;3137;51.550;7.060;2023-06-22T10:56:34;11.00;;;10.05;;
6207;SDS011;3137;51.550;7.060;2023-06-22T10:59:01;12.90;;;12.15;;
6207;SDS011;3137;51.550;7.060;2023-06-22T11:01:28;12.43;;;11.32;;
6207;SDS011;3137;51.550;7.060;2023-06-22T11:04:01;9.15;;;8.70;;
6207;SDS011;3137;51.550;7.060;2023-06-22T11:06:28;10.52;;;9.73;;
6207;SDS011;3137;51.550;7.060;2023-06-22T11:08:54;11.00;;;10.18;;
6207;SDS011;3137;51.550;7.060;2023-06-22T11:11:31;10.50;;;9.60;;
6207;SDS011;3137;51.550;7.060;2023-06-22T11:13:58;9.43;;;9.02;;
6207;SDS011;3137;51.550;7.060;2023-06-22T11:16:25;12.40;;;11.20;;
6207;SDS011;3137;51.550;7.060;2023-06-22T11:18:51;9.40;;;9.10;;
6207;SDS011;3137;51.550;7.060;2023-06-22T11:21:18;10.18;;;9.77;;
6207;SDS011;3137;51.550;7.060;2023-06-22T11:23:45;10.00;;;9.63;;
6207;SDS011;3137;51.550;7.060;2023-06-22T11:26:11;10.55;;;10.15;;
6207;SDS011;3137;51.550;7.060;2023-06-22T11:28:38;9.05;;;8.70;;
6207;SDS011;3137;51.550;7.060;2023-06-22T11:31:04;10.05;;;9.13;;
6207;SDS011;3137;51.550;7.060;2023-06-22T11:33:50;9.90;;;9.52;;
6207;SDS011;3137;51.550;7.060;2023-06-22T11:36:17;10.52;;;9.88;;
6207;SDS011;3137;51.550;7.060;2023-06-22T11:38:45;10.75;;;10.30;;
6207;SDS011;3137;51.550;7.060;2023-06-22T11:41:12;11.65;;;10.88;;
6207;SDS011;3137;51.550;7.060;2023-06-22T11:43:38;11.02;;;10.25;;
6207;SDS011;3137;51.550;7.060;2023-06-22T11:46:05;12.38;;;11.35;;
6207;SDS011;3137;51.550;7.060;2023-06-22T11:48:31;12.18;;;11.05;;
6207;SDS011;3137;51.550;7.060;2023-06-22T11:50:58;14.20;;;13.10;;
6207;SDS011;3137;51.550;7.060;2023-06-22T11:53:26;13.38;;;12.35;;
6207;SDS011;3137;51.550;7.060;2023-06-22T11:55:52;15.60;;;12.35;;
6207;SDS011;3137;51.550;7.060;2023-06-22T11:58:20;13.80;;;12.93;;
6207;SDS011;3137;51.550;7.060;2023-06-22T12:00:47;12.48;;;11.68;;
6207;SDS011;3137;51.550;7.060;2023-06-22T12:03:18;12.50;;;11.68;;
6207;SDS011;3137;51.550;7.060;2023-06-22T12:05:45;12.95;;;12.13;;
6207;SDS011;3137;51.550;7.060;2023-06-22T12:08:11;11.75;;;10.82;;
6207;SDS011;3137;51.550;7.060;2023-06-22T12:10:39;15.30;;;13.82;;
6207;SDS011;3137;51.550;7.060;2023-06-22T12:13:06;14.52;;;13.50;;
6207;SDS011;3137;51.550;7.060;2023-06-22T12:15:32;17.38;;;14.65;;
6207;SDS011;3137;51.550;7.060;2023-06-22T12:17:59;21.17;;;16.35;;
6207;SDS011;3137;51.550;7.060;2023-06-22T12:20:25;28.10;;;20.97;;
6207;SDS011;3137;51.550;7.060;2023-06-22T12:22:52;17.88;;;16.17;;
6207;SDS011;3137;51.550;7.060;2023-06-22T12:25:18;22.35;;;18.08;;
6207;SDS011;3137;51.550;7.060;2023-06-22T12:27:45;18.97;;;16.93;;
6207;SDS011;3137;51.550;7.060;2023-06-22T12:30:11;21.63;;;19.47;;
6207;SDS011;3137;51.550;7.060;2023-06-22T12:32:38;24.93;;;19.57;;
6207;SDS011;3137;51.550;7.060;2023-06-22T12:35:04;20.47;;;17.70;;
6207;SDS011;3137;51.550;7.060;2023-06-22T12:37:33;27.17;;;20.97;;
6207;SDS011;3137;51.550;7.060;2023-06-22T12:40:00;26.53;;;21.83;;
6207;SDS011;3137;51.550;7.060;2023-06-22T12:42:26;33.73;;;22.33;;
6207;SDS011;3137;51.550;7.060;2023-06-22T12:44:54;26.23;;;21.70;;
6207;SDS011;3137;51.550;7.060;2023-06-22T12:47:21;26.20;;;21.87;;
6207;SDS011;3137;51.550;7.060;2023-06-22T12:49:48;27.97;;;22.63;;
6207;SDS011;3137;51.550;7.060;2023-06-22T12:52:14;33.57;;;24.70;;
6207;SDS011;3137;51.550;7.060;2023-06-22T12:54:41;27.97;;;21.87;;
6207;SDS011;3137;51.550;7.060;2023-06-22T12:57:20;27.23;;;22.37;;
6207;SDS011;3137;51.550;7.060;2023-06-22T12:59:46;27.63;;;23.63;;
6207;SDS011;3137;51.550;7.060;2023-06-22T13:02:13;25.57;;;21.50;;
6207;SDS011;3137;51.550;7.060;2023-06-22T13:04:39;27.10;;;22.57;;
6207;SDS011;3137;51.550;7.060;2023-06-22T13:07:06;31.77;;;23.70;;
6207;SDS011;3137;51.550;7.060;2023-06-22T13:09:46;25.17;;;21.30;;
6207;SDS011;3137;51.550;7.060;2023-06-22T13:12:12;26.60;;;22.97;;
6207;SDS011;3137;51.550;7.060;2023-06-22T13:14:39;24.13;;;21.23;;
6207;SDS011;3137;51.550;7.060;2023-06-22T13:17:05;26.17;;;21.80;;
6207;SDS011;3137;51.550;7.060;2023-06-22T13:19:32;23.10;;;20.20;;
6207;SDS011;3137;51.550;7.060;2023-06-22T13:21:59;25.80;;;21.70;;
6207;SDS011;3137;51.550;7.060;2023-06-22T13:24:26;35.33;;;22.47;;
6207;SDS011;3137;51.550;7.060;2023-06-22T13:26:52;25.73;;;21.57;;
6207;SDS011;3137;51.550;7.060;2023-06-22T13:29:19;27.10;;;22.30;;
6207;SDS011;3137;51.550;7.060;2023-06-22T13:31:45;28.03;;;20.47;;
6207;SDS011;3137;51.550;7.060;2023-06-22T13:34:12;22.77;;;19.67;;
6207;SDS011;3137;51.550;7.060;2023-06-22T13:36:38;25.17;;;21.77;;
6207;SDS011;3137;51.550;7.060;2023-06-22T13:39:05;21.23;;;19.13;;
6207;SDS011;3137;51.550;7.060;2023-06-22T13:41:31;32.03;;;23.00;;
6207;SDS011;3137;51.550;7.060;2023-06-22T13:43:58;27.27;;;23.43;;
6207;SDS011;3137;51.550;7.060;2023-06-22T13:46:24;22.73;;;20.27;;
6207;SDS011;3137;51.550;7.060;2023-06-22T13:48:51;25.27;;;21.70;;
6207;SDS011;3137;51.550;7.060;2023-06-22T13:51:22;23.03;;;19.97;;
6207;SDS011;3137;51.550;7.060;2023-06-22T13:53:48;25.57;;;21.63;;
6207;SDS011;3137;51.550;7.060;2023-06-22T13:56:14;25.70;;;20.63;;
6207;SDS011;3137;51.550;7.060;2023-06-22T13:58:41;28.60;;;24.13;;
6207;SDS011;3137;51.550;7.060;2023-06-22T14:01:09;20.17;;;18.03;;
6207;SDS011;3137;51.550;7.060;2023-06-22T14:03:43;29.63;;;23.80;;
6207;SDS011;3137;51.550;7.060;2023-06-22T14:06:11;27.77;;;20.77;;
6207;SDS011;3137;51.550;7.060;2023-06-22T14:08:38;28.00;;;22.80;;
6207;SDS011;3137;51.550;7.060;2023-06-22T14:11:07;24.93;;;21.67;;
6207;SDS011;3137;51.550;7.060;2023-06-22T14:13:34;27.50;;;20.77;;
6207;SDS011;3137;51.550;7.060;2023-06-22T14:16:01;32.70;;;24.07;;
6207;SDS011;3137;51.550;7.060;2023-06-22T14:18:28;25.73;;;22.90;;
6207;SDS011;3137;51.550;7.060;2023-06-22T14:20:54;25.60;;;22.00;;
6207;SDS011;3137;51.550;7.060;2023-06-22T14:23:21;32.07;;;21.13;;
6207;SDS011;3137;51.550;7.060;2023-06-22T14:25:47;21.90;;;19.10;;
6207;SDS011;3137;51.550;7.060;2023-06-22T14:28:14;27.13;;;22.67;;
6207;SDS011;3137;51.550;7.060;2023-06-22T14:30:42;23.00;;;20.70;;
6207;SDS011;3137;51.550;7.060;2023-06-22T14:33:09;30.57;;;21.83;;
6207;SDS011;3137;51.550;7.060;2023-06-22T14:35:35;29.10;;;21.93;;
6207;SDS011;3137;51.550;7.060;2023-06-22T14:38:02;23.37;;;20.40;;
6207;SDS011;3137;51.550;7.060;2023-06-22T14:40:28;18.77;;;16.97;;
6207;SDS011;3137;51.550;7.060;2023-06-22T14:42:57;28.90;;;22.60;;
6207;SDS011;3137;51.550;7.060;2023-06-22T14:45:24;26.57;;;22.17;;
6207;SDS011;3137;51.550;7.060;2023-06-22T14:47:50;27.07;;;21.53;;
6207;SDS011;3137;51.550;7.060;2023-06-22T14:50:17;31.97;;;24.90;;
6207;SDS011;3137;51.550;7.060;2023-06-22T14:52:43;24.07;;;19.93;;
6207;SDS011;3137;51.550;7.060;2023-06-22T14:55:10;25.23;;;20.40;;
6207;SDS011;3137;51.550;7.060;2023-06-22T14:57:37;27.73;;;23.97;;
6207;SDS011;3137;51.550;7.060;2023-06-22T15:00:03;27.30;;;22.83;;
6207;SDS011;3137;51.550;7.060;2023-06-22T15:02:32;25.13;;;22.43;;
6207;SDS011;3137;51.550;7.060;2023-06-22T15:04:59;29.27;;;23.57;;
6207;SDS011;3137;51.550;7.060;2023-06-22T15:07:25;30.97;;;25.87;;